sensor_id;sensor_type;location;lat;lon;timestamp;pressure;altitude;pressure_sealevel;temperature;humidity
30339;BME280;795;49.296;11.348;2023-02-18T00:01:36;97098.38;;;9.41;100.00
30339;BME280;795;49.296;11.348;2023-02-18T00:04:03;97089.94;;;9.26;100.00
30339;BME280;795;49.296;11.348;2023-02-18T00:06:34;97107.13;;;9.33;100.00
30339;BME280;795;49.296;11.348;2023-02-18T00:09:03;97112.94;;;9.29;100.00
30339;BME280;795;49.296;11.348;2023-02-18T00:11:34;97068.28;;;9.10;100.00
30339;BME280;795;49.296;11.348;2023-02-18T00:14:10;97098.94;;;9.35;100.00
30339;BME280;795;49.296;11.348;2023-02-18T00:16:38;97100.50;;;9.28;100.00
30339;BME280;795;49.296;11.348;2023-02-18T00:19:11;97095.72;;;9.31;100.00
30339;BME280;795;49.296;11.348;2023-02-18T00:21:40;97113.06;;;9.37;100.00
30339;BME280;795;49.296;11.348;2023-02-18T00:24:08;97072.47;;;9.22;100.00
30339;BME280;795;49.296;11.348;2023-02-18T00:26:36;97107.25;;;9.42;100.00
30339;BME280;795;49.296;11.348;2023-02-18T00:29:03;97081.75;;;9.28;100.00
30339;BME280;795;49.296;11.348;2023-02-18T00:31:35;97088.09;;;9.37;100.00
30339;BME280;795;49.296;11.348;2023-02-18T00:34:05;97096.53;;;9.42;100.00
30339;BME280;795;49.296;11.348;2023-02-18T00:36:32;97094.56;;;9.44;100.00
30339;BME280;795;49.296;11.348;2023-02-18T00:39:04;97100.78;;;9.44;100.00
30339;BME280;795;49.296;11.348;2023-02-18T00:41:33;97099.91;;;9.44;100.00
30339;BME280;795;49.296;11.348;2023-02-18T00:44:01;97062.47;;;9.24;100.00
30339;BME280;795;49.296;11.348;2023-02-18T00:46:29;97099.63;;;9.47;100.00
30339;BME280;795;49.296;11.348;2023-02-18T00:48:56;97051.75;;;9.24;100.00
30339;BME280;795;49.296;11.348;2023-02-18T00:51:23;97091.59;;;9.47;100.00
30339;BME280;795;49.296;11.348;2023-02-18T00:53:51;97105.28;;;9.44;100.00
30339;BME280;795;49.296;11.348;2023-02-18T00:56:20;97108.13;;;9.42;100.00
30339;BME280;795;49.296;11.348;2023-02-18T00:58:47;97081.91;;;9.26;100.00
30339;BME280;795;49.296;11.348;2023-02-18T01:01:14;97101.34;;;9.38;100.00
30339;BME280;795;49.296;11.348;2023-02-18T01:03:43;97107.81;;;9.35;100.00
30339;BME280;795;49.296;11.348;2023-02-18T01:06:12;97114.31;;;9.33;100.00
30339;BME280;795;49.296;11.348;2023-02-18T01:08:40;97082.78;;;9.17;100.00
30339;BME280;795;49.296;11.348;2023-02-18T01:11:11;97115.75;;;9.27;100.00
30339;BME280;795;49.296;11.348;2023-02-18T01:13:39;97118.47;;;9.18;100.00
30339;BME280;795;49.296;11.348;2023-02-18T01:16:07;97125.75;;;9.25;100.00
30339;BME280;795;49.296;11.348;2023-02-18T01:18:37;97121.41;;;9.15;100.00
30339;BME280;795;49.296;11.348;2023-02-18T01:21:07;97139.31;;;9.24;100.00
30339;BME280;795;49.296;11.348;2023-02-18T01:23:40;97132.84;;;9.17;100.00
30339;BME280;795;49.296;11.348;2023-02-18T01:26:09;97133.38;;;9.20;100.00
30339;BME280;795;49.296;11.348;2023-02-18T01:28:39;97074.06;;;8.96;100.00
30339;BME280;795;49.296;11.348;2023-02-18T01:31:11;97133.38;;;9.20;100.00
30339;BME280;795;49.296;11.348;2023-02-18T01:33:39;97113.50;;;9.13;100.00
30339;BME280;795;49.296;11.348;2023-02-18T01:36:08;97109.59;;;9.08;100.00
30339;BME280;795;49.296;11.348;2023-02-18T01:38:36;97124.22;;;9.13;100.00
30339;BME280;795;49.296;11.348;2023-02-18T01:41:03;97131.69;;;9.19;100.00
30339;BME280;795;49.296;11.348;2023-02-18T01:43:32;97105.47;;;9.04;100.00
30339;BME280;795;49.296;11.348;2023-02-18T01:48:52;97121.84;;;9.20;100.00
30339;BME280;795;49.296;11.348;2023-02-18T01:51:31;97090.56;;;8.92;100.00
30339;BME280;795;49.296;11.348;2023-02-18T01:54:13;97127.47;;;9.17;100.00
30339;BME280;795;49.296;11.348;2023-02-18T01:56:53;97112.81;;;9.02;100.00
30339;BME280;795;49.296;11.348;2023-02-18T01:59:32;97135.09;;;9.12;100.00
30339;BME280;795;49.296;11.348;2023-02-18T02:02:00;97111.53;;;8.96;100.00
30339;BME280;795;49.296;11.348;2023-02-18T02:04:27;97140.28;;;9.13;100.00
30339;BME280;795;49.296;11.348;2023-02-18T02:06:54;97117.63;;;9.08;100.00
30339;BME280;795;49.296;11.348;2023-02-18T02:09:26;97131.84;;;9.08;100.00
30339;BME280;795;49.296;11.348;2023-02-18T02:15:53;97118.31;;;9.00;100.00
30339;BME280;795;49.296;11.348;2023-02-18T02:19:28;97097.59;;;9.02;100.00
30339;BME280;795;49.296;11.348;2023-02-18T02:35:01;97080.97;;;8.89;100.00
30339;BME280;795;49.296;11.348;2023-02-18T02:37:48;97084.06;;;8.94;100.00
30339;BME280;795;49.296;11.348;2023-02-18T02:40:54;97101.25;;;9.01;100.00
30339;BME280;795;49.296;11.348;2023-02-18T02:44:16;97100.44;;;9.01;100.00
30339;BME280;795;49.296;11.348;2023-02-18T02:46:51;97091.81;;;8.97;100.00
30339;BME280;795;49.296;11.348;2023-02-18T02:49:57;97073.22;;;8.96;100.00
30339;BME280;795;49.296;11.348;2023-02-18T02:52:35;97064.34;;;8.86;100.00
30339;BME280;795;49.296;11.348;2023-02-18T02:55:10;97046.16;;;8.80;100.00
30339;BME280;795;49.296;11.348;2023-02-18T03:00:13;97042.38;;;8.82;100.00
30339;BME280;795;49.296;11.348;2023-02-18T03:12:24;97062.38;;;8.88;100.00
30339;BME280;795;49.296;11.348;2023-02-18T03:15:26;97080.84;;;9.00;100.00
30339;BME280;795;49.296;11.348;2023-02-18T03:18:17;97066.75;;;8.89;100.00
30339;BME280;795;49.296;11.348;2023-02-18T03:21:05;97071.69;;;8.93;100.00
30339;BME280;795;49.296;11.348;2023-02-18T03:24:12;97080.13;;;8.98;100.00
30339;BME280;795;49.296;11.348;2023-02-18T03:26:50;97078.28;;;8.99;100.00
30339;BME280;795;49.296;11.348;2023-02-18T03:29:21;97052.66;;;8.77;100.00
30339;BME280;795;49.296;11.348;2023-02-18T03:31:56;97048.84;;;8.80;100.00
30339;BME280;795;49.296;11.348;2023-02-18T03:34:35;97082.94;;;8.97;100.00
30339;BME280;795;49.296;11.348;2023-02-18T03:37:06;97072.50;;;8.84;100.00
30339;BME280;795;49.296;11.348;2023-02-18T03:39:36;97065.75;;;8.90;100.00
30339;BME280;795;49.296;11.348;2023-02-18T03:42:07;97066.88;;;8.87;100.00
30339;BME280;795;49.296;11.348;2023-02-18T03:44:34;97080.41;;;8.95;100.00
30339;BME280;795;49.296;11.348;2023-02-18T03:47:01;97056.47;;;8.75;100.00
30339;BME280;795;49.296;11.348;2023-02-18T03:49:28;97039.88;;;8.61;100.00
30339;BME280;795;49.296;11.348;2023-02-18T03:51:55;97059.00;;;8.76;100.00
30339;BME280;795;49.296;11.348;2023-02-18T03:54:22;97063.94;;;8.81;100.00
30339;BME280;795;49.296;11.348;2023-02-18T03:56:49;97067.31;;;8.83;100.00
30339;BME280;795;49.296;11.348;2023-02-18T03:59:16;97073.25;;;8.86;100.00
30339;BME280;795;49.296;11.348;2023-02-18T04:01:43;97072.13;;;8.89;100.00
30339;BME280;795;49.296;11.348;2023-02-18T04:04:10;97096.19;;;8.98;100.00
30339;BME280;795;49.296;11.348;2023-02-18T04:06:37;97088.44;;;8.95;100.00
30339;BME280;795;49.296;11.348;2023-02-18T04:09:04;97020.13;;;8.53;100.00
30339;BME280;795;49.296;11.348;2023-02-18T04:11:38;97067.88;;;8.86;100.00
30339;BME280;795;49.296;11.348;2023-02-18T04:14:07;97087.59;;;8.95;100.00
30339;BME280;795;49.296;11.348;2023-02-18T04:16:34;97097.19;;;8.97;100.00
30339;BME280;795;49.296;11.348;2023-02-18T04:19:01;97083.66;;;8.89;100.00
30339;BME280;795;49.296;11.348;2023-02-18T04:21:28;97094.66;;;8.96;100.00
30339;BME280;795;49.296;11.348;2023-02-18T04:23:55;97091.81;;;8.97;100.00
30339;BME280;795;49.296;11.348;2023-02-18T04:26:21;97077.16;;;8.92;100.00
30339;BME280;795;49.296;11.348;2023-02-18T04:28:48;97077.47;;;8.89;100.00
30339;BME280;795;49.296;11.348;2023-02-18T04:31:16;97085.63;;;8.97;100.00
30339;BME280;795;49.296;11.348;2023-02-18T04:33:43;97070.41;;;8.88;100.00
30339;BME280;795;49.296;11.348;2023-02-18T04:36:10;97060.69;;;8.77;100.00
30339;BME280;795;49.296;11.348;2023-02-18T04:38:37;97068.44;;;8.80;100.00
30339;BME280;795;49.296;11.348;2023-02-18T04:41:04;97070.25;;;8.89;100.00
30339;BME280;795;49.296;11.348;2023-02-18T04:43:31;97047.47;;;8.66;100.00
30339;BME280;795;49.296;11.348;2023-02-18T04:45:58;97049.69;;;8.80;100.00
30339;BME280;795;49.296;11.348;2023-02-18T04:48:25;97069.97;;;8.92;100.00
30339;BME280;795;49.296;11.348;2023-02-18T04:50:53;97062.53;;;8.86;100.00
30339;BME280;795;49.296;11.348;2023-02-18T04:53:19;97078.44;;;8.97;100.00
30339;BME280;795;49.296;11.348;2023-02-18T04:55:51;97070.41;;;8.88;100.00
30339;BME280;795;49.296;11.348;2023-02-18T04:58:20;97073.25;;;8.86;100.00
30339;BME280;795;49.296;11.348;2023-02-18T05:00:48;97071.97;;;8.90;100.00
30339;BME280;795;49.296;11.348;2023-02-18T05:03:15;97082.50;;;8.92;100.00
30339;BME280;795;49.296;11.348;2023-02-18T05:05:42;97077.84;;;8.94;100.00
30339;BME280;795;49.296;11.348;2023-02-18T05:08:09;97052.66;;;8.77;100.00
30339;BME280;795;49.296;11.348;2023-02-18T05:10:38;97056.16;;;8.87;100.00
30339;BME280;795;49.296;11.348;2023-02-18T05:13:05;97048.16;;;8.78;100.00
30339;BME280;795;49.296;11.348;2023-02-18T05:15:32;97060.56;;;8.88;100.00
30339;BME280;795;49.296;11.348;2023-02-18T05:17:59;97044.50;;;8.79;100.00
30339;BME280;795;49.296;11.348;2023-02-18T05:20:26;97074.63;;;8.90;100.00
30339;BME280;795;49.296;11.348;2023-02-18T05:22:53;97055.91;;;8.81;100.00
30339;BME280;795;49.296;11.348;2023-02-18T05:25:20;97040.41;;;8.75;100.00
30339;BME280;795;49.296;11.348;2023-02-18T05:27:47;97055.06;;;8.80;100.00
30339;BME280;795;49.296;11.348;2023-02-18T05:30:14;97065.47;;;8.93;100.00
30339;BME280;795;49.296;11.348;2023-02-18T05:32:41;97057.72;;;8.80;100.00
30339;BME280;795;49.296;11.348;2023-02-18T05:35:08;97066.59;;;8.90;100.00
30339;BME280;795;49.296;11.348;2023-02-18T05:37:36;97045.34;;;8.79;100.00
30339;BME280;795;49.296;11.348;2023-02-18T05:40:05;97049.28;;;8.85;100.00
30339;BME280;795;49.296;11.348;2023-02-18T05:42:32;97007.59;;;8.53;100.00
30339;BME280;795;49.296;11.348;2023-02-18T05:44:59;97061.41;;;8.89;100.00
30339;BME280;795;49.296;11.348;2023-02-18T05:47:26;97041.25;;;8.75;100.00
30339;BME280;795;49.296;11.348;2023-02-18T05:49:53;97036.16;;;8.72;100.00
30339;BME280;795;49.296;11.348;2023-02-18T05:52:21;96960.84;;;8.38;100.00
30339;BME280;795;49.296;11.348;2023-02-18T05:54:48;97049.53;;;8.82;100.00
30339;BME280;795;49.296;11.348;2023-02-18T05:57:17;97053.78;;;8.84;100.00
30339;BME280;795;49.296;11.348;2023-02-18T05:59:44;97053.22;;;8.81;100.00
30339;BME280;795;49.296;11.348;2023-02-18T06:02:10;97058.44;;;8.82;100.00
30339;BME280;795;49.296;11.348;2023-02-18T06:04:37;97031.81;;;8.71;100.00
30339;BME280;795;49.296;11.348;2023-02-18T06:07:06;97050.97;;;8.76;100.00
30339;BME280;795;49.296;11.348;2023-02-18T06:09:33;97062.22;;;8.89;100.00
30339;BME280;795;49.296;11.348;2023-02-18T06:12:00;97054.09;;;8.81;100.00
30339;BME280;795;49.296;11.348;2023-02-18T06:14:27;97017.03;;;8.67;100.00
30339;BME280;795;49.296;11.348;2023-02-18T06:16:54;97012.41;;;8.59;100.00
30339;BME280;795;49.296;11.348;2023-02-18T06:19:22;97031.25;;;8.67;100.00
30339;BME280;795;49.296;11.348;2023-02-18T06:21:49;97066.88;;;8.87;100.00
30339;BME280;795;49.296;11.348;2023-02-18T06:24:15;97070.56;;;8.86;100.00
30339;BME280;795;49.296;11.348;2023-02-18T06:26:42;97043.66;;;8.78;100.00
30339;BME280;795;49.296;11.348;2023-02-18T06:29:09;97042.78;;;8.78;100.00
30339;BME280;795;49.296;11.348;2023-02-18T06:31:36;97070.41;;;8.88;100.00
30339;BME280;795;49.296;11.348;2023-02-18T06:34:03;97028.72;;;8.66;100.00
30339;BME280;795;49.296;11.348;2023-02-18T06:36:30;97037.72;;;8.75;100.00
30339;BME280;795;49.296;11.348;2023-02-18T06:38:57;97056.75;;;8.81;100.00
30339;BME280;795;49.296;11.348;2023-02-18T06:41:25;97031.66;;;8.73;100.00
30339;BME280;795;49.296;11.348;2023-02-18T06:43:51;97050.28;;;8.84;100.00
30339;BME280;795;49.296;11.348;2023-02-18T06:46:18;97029.00;;;8.73;100.00
30339;BME280;795;49.296;11.348;2023-02-18T06:48:45;97056.75;;;8.91;100.00
30339;BME280;795;49.296;11.348;2023-02-18T06:51:13;97034.75;;;8.78;100.00
30339;BME280;795;49.296;11.348;2023-02-18T06:53:42;97053.78;;;8.84;100.00
30339;BME280;795;49.296;11.348;2023-02-18T06:56:10;97038.72;;;8.83;100.00
30339;BME280;795;49.296;11.348;2023-02-18T06:58:38;97037.88;;;8.73;100.00
30339;BME280;795;49.296;11.348;2023-02-18T07:01:05;97012.38;;;8.69;100.00
30339;BME280;795;49.296;11.348;2023-02-18T07:03:32;97029.41;;;8.78;100.00
30339;BME280;795;49.296;11.348;2023-02-18T07:05:59;97045.19;;;8.90;100.00
30339;BME280;795;49.296;11.348;2023-02-18T07:08:26;97016.19;;;8.76;100.00
30339;BME280;795;49.296;11.348;2023-02-18T07:10:53;97018.84;;;8.76;100.00
30339;BME280;795;49.296;11.348;2023-02-18T07:13:20;97026.19;;;8.84;100.00
30339;BME280;795;49.296;11.348;2023-02-18T07:15:47;97029.28;;;8.89;100.00
30339;BME280;795;49.296;11.348;2023-02-18T07:18:14;97024.47;;;8.92;100.00
30339;BME280;795;49.296;11.348;2023-02-18T07:20:41;96997.44;;;8.76;100.00
30339;BME280;795;49.296;11.348;2023-02-18T07:23:08;96982.81;;;8.61;100.00
30339;BME280;795;49.296;11.348;2023-02-18T07:25:36;97023.31;;;8.95;100.00
30339;BME280;795;49.296;11.348;2023-02-18T07:28:04;97020.66;;;8.95;100.00
30339;BME280;795;49.296;11.348;2023-02-18T07:30:31;97020.81;;;8.93;100.00
30339;BME280;795;49.296;11.348;2023-02-18T07:32:58;97018.81;;;8.95;100.00
30339;BME280;795;49.296;11.348;2023-02-18T07:35:25;96965.47;;;8.65;100.00
30339;BME280;795;49.296;11.348;2023-02-18T07:37:52;96975.75;;;8.69;100.00
30339;BME280;795;49.296;11.348;2023-02-18T07:40:21;96999.41;;;8.84;100.00
30339;BME280;795;49.296;11.348;2023-02-18T07:42:48;97005.88;;;8.91;100.00
30339;BME280;795;49.296;11.348;2023-02-18T07:45:15;96985.44;;;8.80;100.00
30339;BME280;795;49.296;11.348;2023-02-18T07:47:42;97015.16;;;9.06;100.00
30339;BME280;795;49.296;11.348;2023-02-18T07:50:11;96998.38;;;8.94;100.00
30339;BME280;795;49.296;11.348;2023-02-18T07:52:38;97019.09;;;9.02;100.00
30339;BME280;795;49.296;11.348;2023-02-18T07:55:05;97015.97;;;9.06;100.00
30339;BME280;795;49.296;11.348;2023-02-18T07:57:33;96979.50;;;8.96;100.00
30339;BME280;795;49.296;11.348;2023-02-18T08:00:20;97013.81;;;9.19;100.00
30339;BME280;795;49.296;11.348;2023-02-18T08:02:47;96973.31;;;8.95;100.00
30339;BME280;795;49.296;11.348;2023-02-18T08:05:14;96989.44;;;9.22;100.00
30339;BME280;795;49.296;11.348;2023-02-18T08:07:41;96990.66;;;9.28;100.00
30339;BME280;795;49.296;11.348;2023-02-18T08:10:08;96984.28;;;9.39;100.00
30339;BME280;795;49.296;11.348;2023-02-18T08:12:35;96980.63;;;9.40;100.00
30339;BME280;795;49.296;11.348;2023-02-18T08:15:03;96989.31;;;9.51;100.00
30339;BME280;795;49.296;11.348;2023-02-18T08:17:30;96963.66;;;9.49;100.00
30339;BME280;795;49.296;11.348;2023-02-18T08:19:57;96970.34;;;9.62;100.00
30339;BME280;795;49.296;11.348;2023-02-18T08:22:24;96966.38;;;9.66;100.00
30339;BME280;795;49.296;11.348;2023-02-18T08:24:54;96957.72;;;9.72;100.00
30339;BME280;795;49.296;11.348;2023-02-18T08:27:23;96959.41;;;9.73;100.00
30339;BME280;795;49.296;11.348;2023-02-18T08:29:51;96965.63;;;9.91;100.00
30339;BME280;795;49.296;11.348;2023-02-18T08:32:18;96958.34;;;9.84;100.00
30339;BME280;795;49.296;11.348;2023-02-18T08:34:45;96932.22;;;9.68;100.00
30339;BME280;795;49.296;11.348;2023-02-18T08:37:12;96922.69;;;9.74;100.00
30339;BME280;795;49.296;11.348;2023-02-18T08:39:39;96903.25;;;9.72;100.00
30339;BME280;795;49.296;11.348;2023-02-18T08:42:06;96898.47;;;9.93;100.00
30339;BME280;795;49.296;11.348;2023-02-18T08:44:33;96870.16;;;9.98;100.00
30339;BME280;795;49.296;11.348;2023-02-18T08:47:00;96869.94;;;10.27;100.00
30339;BME280;795;49.296;11.348;2023-02-18T08:49:27;96887.22;;;10.50;100.00
30339;BME280;795;49.296;11.348;2023-02-18T08:51:55;96877.78;;;10.46;100.00
30339;BME280;795;49.296;11.348;2023-02-18T08:54:22;96856.81;;;10.68;100.00
30339;BME280;795;49.296;11.348;2023-02-18T08:56:54;96858.94;;;11.31;100.00
30339;BME280;795;49.296;11.348;2023-02-18T08:59:21;96860.47;;;11.76;100.00
30339;BME280;795;49.296;11.348;2023-02-18T09:03:52;96857.13;;;11.98;100.00
30339;BME280;795;49.296;11.348;2023-02-18T09:06:20;96858.88;;;11.65;100.00
30339;BME280;795;49.296;11.348;2023-02-18T09:08:46;96855.31;;;11.49;100.00
30339;BME280;795;49.296;11.348;2023-02-18T09:11:14;96843.38;;;11.43;100.00
30339;BME280;795;49.296;11.348;2023-02-18T09:13:41;96834.56;;;11.25;100.00
30339;BME280;795;49.296;11.348;2023-02-18T09:16:15;96851.31;;;11.61;100.00
30339;BME280;795;49.296;11.348;2023-02-18T09:18:47;96823.78;;;11.75;100.00
30339;BME280;795;49.296;11.348;2023-02-18T09:21:16;96837.38;;;11.65;100.00
30339;BME280;795;49.296;11.348;2023-02-18T09:23:46;96825.03;;;11.30;100.00
30339;BME280;795;49.296;11.348;2023-02-18T09:26:17;96835.97;;;11.37;100.00
30339;BME280;795;49.296;11.348;2023-02-18T09:28:44;96797.41;;;11.12;100.00
30339;BME280;795;49.296;11.348;2023-02-18T09:31:17;96814.25;;;11.22;100.00
30339;BME280;795;49.296;11.348;2023-02-18T09:33:56;96777.13;;;11.26;100.00
30339;BME280;795;49.296;11.348;2023-02-18T09:36:24;96798.28;;;11.21;100.00
30339;BME280;795;49.296;11.348;2023-02-18T09:38:51;96767.34;;;11.09;100.00
30339;BME280;795;49.296;11.348;2023-02-18T09:41:47;96817.78;;;11.23;100.00
30339;BME280;795;49.296;11.348;2023-02-18T09:47:16;96820.66;;;11.29;100.00
30339;BME280;795;49.296;11.348;2023-02-18T09:49:56;96813.25;;;11.31;100.00
30339;BME280;795;49.296;11.348;2023-02-18T09:52:33;96814.72;;;11.18;100.00
30339;BME280;795;49.296;11.348;2023-02-18T09:55:27;96825.16;;;11.21;100.00
30339;BME280;795;49.296;11.348;2023-02-18T09:58:14;96828.34;;;11.16;100.00
30339;BME280;795;49.296;11.348;2023-02-18T10:01:03;96821.94;;;11.17;100.00
30339;BME280;795;49.296;11.348;2023-02-18T10:03:32;96821.44;;;11.22;100.00
30339;BME280;795;49.296;11.348;2023-02-18T10:06:10;96804.03;;;11.34;100.00
30339;BME280;795;49.296;11.348;2023-02-18T10:08:51;96756.25;;;11.04;100.00
30339;BME280;795;49.296;11.348;2023-02-18T10:11:32;96795.31;;;11.40;100.00
30339;BME280;795;49.296;11.348;2023-02-18T10:14:04;96780.84;;;11.41;100.00
30339;BME280;795;49.296;11.348;2023-02-18T10:16:34;96794.31;;;11.49;100.00
30339;BME280;795;49.296;11.348;2023-02-18T10:19:32;96804.88;;;11.34;100.00
30339;BME280;795;49.296;11.348;2023-02-18T10:22:07;96805.88;;;11.42;100.00
30339;BME280;795;49.296;11.348;2023-02-18T10:24:57;96797.69;;;11.51;100.00
30339;BME280;795;49.296;11.348;2023-02-18T10:27:35;96800.56;;;11.66;100.00
30339;BME280;795;49.296;11.348;2023-02-18T10:30:41;96791.72;;;11.81;100.00
30339;BME280;795;49.296;11.348;2023-02-18T10:33:44;96792.03;;;12.03;100.00
30339;BME280;795;49.296;11.348;2023-02-18T10:36:48;96781.94;;;12.05;100.00
30339;BME280;795;49.296;11.348;2023-02-18T10:39:45;96763.28;;;11.87;100.00
30339;BME280;795;49.296;11.348;2023-02-18T10:48:21;96750.66;;;11.55;100.00
30339;BME280;795;49.296;11.348;2023-02-18T10:50:50;96754.34;;;11.62;100.00
30339;BME280;795;49.296;11.348;2023-02-18T10:53:38;96739.91;;;11.55;100.00
30339;BME280;795;49.296;11.348;2023-02-18T10:56:07;96716.69;;;11.62;100.00
30339;BME280;795;49.296;11.348;2023-02-18T10:58:45;96751.69;;;12.03;100.00
30339;BME280;795;49.296;11.348;2023-02-18T11:01:20;96728.97;;;12.05;100.00
30339;BME280;795;49.296;11.348;2023-02-18T11:03:51;96714.66;;;12.05;100.00
30339;BME280;795;49.296;11.348;2023-02-18T11:06:50;96751.66;;;12.19;100.00
30339;BME280;795;49.296;11.348;2023-02-18T11:13:04;96719.69;;;12.79;96.66
30339;BME280;795;49.296;11.348;2023-02-18T11:17:45;96729.63;;;13.40;90.04
30339;BME280;795;49.296;11.348;2023-02-18T11:25:39;96731.44;;;13.24;87.02
30339;BME280;795;49.296;11.348;2023-02-18T11:28:43;96706.22;;;13.40;84.04
30339;BME280;795;49.296;11.348;2023-02-18T11:31:26;96682.78;;;13.41;85.91
30339;BME280;795;49.296;11.348;2023-02-18T11:34:01;96702.28;;;13.51;82.85
30339;BME280;795;49.296;11.348;2023-02-18T11:36:34;96697.28;;;13.40;84.40
30339;BME280;795;49.296;11.348;2023-02-18T11:39:24;96694.03;;;13.21;84.37
30339;BME280;795;49.296;11.348;2023-02-18T11:42:05;96690.41;;;13.06;86.40
30339;BME280;795;49.296;11.348;2023-02-18T11:44:51;96639.25;;;12.68;86.32
30339;BME280;795;49.296;11.348;2023-02-18T11:47:35;96667.00;;;12.76;87.81
30339;BME280;795;49.296;11.348;2023-02-18T11:52:46;96651.56;;;12.62;87.39
30339;BME280;795;49.296;11.348;2023-02-18T11:55:20;96655.69;;;12.81;87.66
30339;BME280;795;49.296;11.348;2023-02-18T11:58:03;96659.00;;;12.91;87.27
30339;BME280;795;49.296;11.348;2023-02-18T12:00:41;96659.13;;;12.97;85.92
30339;BME280;795;49.296;11.348;2023-02-18T12:03:30;96660.63;;;13.08;86.15
30339;BME280;795;49.296;11.348;2023-02-18T12:06:45;96639.50;;;13.11;83.60
30339;BME280;795;49.296;11.348;2023-02-18T12:09:26;96640.97;;;13.22;79.03
30339;BME280;795;49.296;11.348;2023-02-18T12:12:13;96621.91;;;13.23;79.25
30339;BME280;795;49.296;11.348;2023-02-18T12:14:42;96650.31;;;13.71;74.88
30339;BME280;795;49.296;11.348;2023-02-18T12:17:51;96636.13;;;13.77;70.91
30339;BME280;795;49.296;11.348;2023-02-18T12:24:00;96646.97;;;13.69;69.91
30339;BME280;795;49.296;11.348;2023-02-18T12:30:39;96647.00;;;13.47;68.44
30339;BME280;795;49.296;11.348;2023-02-18T12:37:19;96626.25;;;13.47;68.83
30339;BME280;795;49.296;11.348;2023-02-18T12:40:29;96622.97;;;13.37;69.40
30339;BME280;795;49.296;11.348;2023-02-18T12:49:39;96575.31;;;13.67;67.97
30339;BME280;795;49.296;11.348;2023-02-18T12:53:16;96615.69;;;13.60;69.27
30339;BME280;795;49.296;11.348;2023-02-18T12:56:30;96609.53;;;13.52;70.33
30339;BME280;795;49.296;11.348;2023-02-18T13:14:22;96587.84;;;13.97;68.47
30339;BME280;795;49.296;11.348;2023-02-18T13:16:56;96608.78;;;13.95;67.82
30339;BME280;795;49.296;11.348;2023-02-18T13:19:56;96597.97;;;13.80;68.07
30339;BME280;795;49.296;11.348;2023-02-18T13:22:28;96599.06;;;13.71;68.64
30339;BME280;795;49.296;11.348;2023-02-18T13:24:58;96584.25;;;13.53;69.06
30339;BME280;795;49.296;11.348;2023-02-18T13:28:19;96594.63;;;13.41;69.65
30339;BME280;795;49.296;11.348;2023-02-18T13:37:29;96584.59;;;12.82;72.32
30339;BME280;795;49.296;11.348;2023-02-18T13:40:00;96563.03;;;12.82;71.83
30339;BME280;795;49.296;11.348;2023-02-18T13:42:34;96600.72;;;12.90;71.96
30339;BME280;795;49.296;11.348;2023-02-18T13:45:27;96596.03;;;12.84;71.59
30339;BME280;795;49.296;11.348;2023-02-18T13:47:57;96575.63;;;12.67;72.24
30339;BME280;795;49.296;11.348;2023-02-18T13:50:38;96549.69;;;12.65;73.20
30339;BME280;795;49.296;11.348;2023-02-18T13:56:06;96563.84;;;12.59;73.74
30339;BME280;795;49.296;11.348;2023-02-18T14:01:50;96564.09;;;12.50;74.47
30339;BME280;795;49.296;11.348;2023-02-18T14:10:33;96563.44;;;12.48;72.88
30339;BME280;795;49.296;11.348;2023-02-18T14:13:24;96587.13;;;12.52;73.83
30339;BME280;795;49.296;11.348;2023-02-18T14:16:04;96581.50;;;12.39;74.00
30339;BME280;795;49.296;11.348;2023-02-18T14:26:45;96588.59;;;12.32;74.97
30339;BME280;795;49.296;11.348;2023-02-18T14:29:26;96566.44;;;12.22;74.97
30339;BME280;795;49.296;11.348;2023-02-18T14:32:10;96584.88;;;12.33;75.61
30339;BME280;795;49.296;11.348;2023-02-18T14:35:31;96527.00;;;12.37;75.89
30339;BME280;795;49.296;11.348;2023-02-18T14:41:58;96546.56;;;12.23;77.51
30339;BME280;795;49.296;11.348;2023-02-18T14:44:53;96572.50;;;12.16;78.22
30339;BME280;795;49.296;11.348;2023-02-18T14:50:45;96591.72;;;12.05;80.55
30339;BME280;795;49.296;11.348;2023-02-18T14:53:23;96580.84;;;11.90;82.01
30339;BME280;795;49.296;11.348;2023-02-18T14:56:03;96588.41;;;11.95;81.70
30339;BME280;795;49.296;11.348;2023-02-18T14:58:39;96593.44;;;11.98;83.26
30339;BME280;795;49.296;11.348;2023-02-18T15:01:24;96593.91;;;12.02;82.94
30339;BME280;795;49.296;11.348;2023-02-18T15:03:55;96599.47;;;12.00;83.31
30339;BME280;795;49.296;11.348;2023-02-18T15:08:54;96584.59;;;11.81;84.66
30339;BME280;795;49.296;11.348;2023-02-18T15:14:41;96602.91;;;11.86;86.82
30339;BME280;795;49.296;11.348;2023-02-18T15:17:18;96594.50;;;11.81;87.71
30339;BME280;795;49.296;11.348;2023-02-18T15:20:02;96606.97;;;11.50;93.80
30339;BME280;795;49.296;11.348;2023-02-18T15:22:35;96565.34;;;10.89;100.00
30339;BME280;795;49.296;11.348;2023-02-18T15:25:03;96604.75;;;10.81;100.00
30339;BME280;795;49.296;11.348;2023-02-18T15:27:37;96590.81;;;10.69;100.00
30339;BME280;795;49.296;11.348;2023-02-18T15:30:26;96603.56;;;10.67;100.00
30339;BME280;795;49.296;11.348;2023-02-18T15:32:59;96604.56;;;10.66;100.00
30339;BME280;795;49.296;11.348;2023-02-18T15:35:32;96568.63;;;10.43;100.00
30339;BME280;795;49.296;11.348;2023-02-18T15:38:02;96582.59;;;10.62;100.00
30339;BME280;795;49.296;11.348;2023-02-18T15:40:36;96597.00;;;10.53;100.00
30339;BME280;795;49.296;11.348;2023-02-18T15:43:05;96633.75;;;10.61;100.00
30339;BME280;795;49.296;11.348;2023-02-18T15:45:41;96624.44;;;10.39;100.00
30339;BME280;795;49.296;11.348;2023-02-18T15:48:37;96627.03;;;10.15;100.00
30339;BME280;795;49.296;11.348;2023-02-18T15:51:14;96633.34;;;10.06;100.00
30339;BME280;795;49.296;11.348;2023-02-18T15:53:50;96652.97;;;10.07;100.00
30339;BME280;795;49.296;11.348;2023-02-18T15:56:35;96657.91;;;9.93;100.00